createdAt,value
2022-07-27T00:02:38.466Z,17.29
2022-07-27T00:12:40.756Z,17.26
2022-07-27T00:22:43.443Z,17.22
2022-07-27T00:32:45.760Z,17.30
2022-07-27T00:42:49.283Z,17.41
2022-07-27T00:52:56.588Z,17.39
2022-07-27T01:02:59.874Z,17.30
2022-07-27T01:13:07.496Z,17.19
2022-07-27T01:23:15.474Z,16.94
2022-07-27T01:33:18.245Z,16.70
2022-07-27T01:43:22.245Z,16.70
2022-07-27T01:53:29.293Z,16.74
2022-07-27T02:03:32.232Z,16.78
2022-07-27T02:13:37.207Z,16.78
2022-07-27T02:23:40.450Z,16.80
2022-07-27T02:33:43.178Z,16.94
2022-07-27T02:43:45.868Z,17.02
2022-07-27T02:53:49.839Z,17.00
2022-07-27T03:03:52.457Z,16.89
2022-07-27T03:13:55.302Z,16.77
2022-07-27T03:23:58.270Z,16.81
2022-07-27T03:34:02.335Z,16.84
2022-07-27T03:44:06.577Z,16.86
2022-07-27T03:54:09.638Z,16.88
2022-07-27T04:04:12.741Z,16.85
2022-07-27T04:14:16.299Z,16.78
2022-07-27T04:24:20.397Z,16.74
2022-07-27T04:34:24.155Z,16.75
2022-07-27T04:44:26.373Z,16.85
2022-07-27T04:54:29.266Z,16.98
2022-07-27T05:04:35.656Z,17.17
2022-07-27T05:14:38.684Z,17.42
2022-07-27T05:24:41.147Z,17.68
2022-07-27T05:34:46.370Z,17.85
2022-07-27T05:44:49.788Z,18.15
2022-07-27T05:54:52.412Z,18.74
2022-07-27T06:04:55.349Z,19.08
2022-07-27T06:14:59.369Z,19.19
2022-07-27T06:25:01.788Z,19.32
2022-07-27T06:35:04.975Z,19.33
2022-07-27T06:45:09.512Z,19.70
2022-07-27T06:55:12.525Z,20.09
2022-07-27T07:05:15.638Z,20.43
2022-07-27T07:15:18.417Z,20.59
2022-07-27T07:25:21.277Z,20.86
2022-07-27T07:35:24.657Z,21.07
2022-07-27T07:45:28.744Z,21.40
2022-07-27T07:55:32.267Z,21.70
2022-07-27T08:05:36.992Z,22.18
2022-07-27T08:15:42.534Z,22.10
2022-07-27T08:25:47.732Z,22.17
2022-07-27T08:35:50.784Z,22.57
2022-07-27T08:46:01.870Z,23.27
2022-07-27T08:56:06.643Z,23.47
2022-07-27T09:06:09.610Z,23.54
2022-07-27T09:16:18.130Z,23.79
2022-07-27T09:26:32.340Z,24.00
2022-07-27T09:36:55.593Z,24.31
2022-07-27T09:46:58.328Z,24.37
2022-07-27T09:57:02.865Z,24.47
2022-07-27T10:07:10.631Z,24.76
2022-07-27T10:17:14.118Z,25.27
2022-07-27T10:27:30.318Z,25.35
2022-07-27T10:37:37.089Z,25.60
2022-07-27T10:47:49.410Z,26.16
2022-07-27T10:57:52.988Z,26.60
2022-07-27T11:08:34.502Z,26.66
2022-07-27T11:18:29.402Z,26.93
2022-07-27T11:28:33.012Z,27.19
2022-07-27T11:38:53.903Z,27.60
2022-07-27T11:49:07.629Z,27.85
2022-07-27T11:59:19.029Z,27.35
2022-07-27T12:09:23.343Z,29.02
2022-07-27T12:19:25.990Z,29.14
2022-07-27T12:29:29.208Z,26.95
2022-07-27T12:39:33.409Z,27.97
2022-07-27T12:49:36.203Z,29.13
2022-07-27T12:59:40.006Z,28.79
2022-07-27T13:10:03.656Z,28.81
2022-07-27T13:20:10.888Z,28.82
2022-07-27T13:30:15.738Z,30.39
2022-07-27T13:40:18.448Z,30.91
2022-07-27T13:50:22.642Z,31.09
2022-07-27T14:00:26.606Z,31.97
2022-07-27T14:10:32.392Z,32.07
2022-07-27T14:20:35.348Z,32.13
2022-07-27T14:30:37.897Z,32.74
2022-07-27T14:40:41.491Z,33.41
2022-07-27T14:50:44.692Z,33.37
2022-07-27T15:00:48.184Z,32.98
2022-07-27T15:10:51.504Z,32.26
2022-07-27T15:20:54.363Z,30.11
2022-07-27T15:30:56.937Z,29.53
2022-07-27T15:40:59.515Z,29.32
2022-07-27T15:51:02.261Z,28.63
2022-07-27T16:01:07.928Z,27.71
2022-07-27T16:11:14.971Z,27.32
2022-07-27T16:21:18.403Z,27.14
2022-07-27T16:31:21.195Z,27.00
2022-07-27T16:41:24.076Z,27.48
2022-07-27T16:51:26.718Z,26.92
2022-07-27T17:01:29.326Z,26.60
2022-07-27T17:11:32.302Z,26.84
2022-07-27T17:21:39.973Z,26.28
2022-07-27T17:31:43.002Z,25.86
2022-07-27T17:41:45.791Z,25.57
2022-07-27T17:51:48.164Z,25.25
2022-07-27T18:01:50.785Z,24.97
2022-07-27T18:11:53.733Z,24.70
2022-07-27T18:21:56.371Z,24.33
2022-07-27T18:31:58.875Z,24.03
2022-07-27T18:42:04.123Z,23.72
2022-07-27T18:52:06.716Z,23.28
2022-07-27T19:02:09.343Z,22.82
2022-07-27T19:12:12.162Z,22.40
2022-07-27T19:22:15.580Z,21.87
2022-07-27T19:32:18.146Z,21.45
2022-07-27T19:42:21.099Z,21.01
2022-07-27T19:52:23.507Z,20.64
2022-07-27T20:02:26.001Z,20.26
2022-07-27T20:12:29.962Z,19.87
2022-07-27T20:22:33.106Z,19.61
2022-07-27T20:32:36.618Z,19.36
2022-07-27T20:42:41.291Z,19.07
2022-07-27T20:52:44.605Z,18.79
2022-07-27T21:02:48.698Z,18.51
2022-07-27T21:12:52.067Z,18.24
2022-07-27T21:23:13.015Z,18.03
2022-07-27T21:33:15.834Z,17.76
2022-07-27T21:43:18.919Z,17.56
2022-07-27T21:53:21.104Z,17.33
2022-07-27T22:03:24.658Z,17.15
2022-07-27T22:13:28.425Z,16.96
2022-07-27T22:23:30.705Z,16.78
2022-07-27T22:33:33.725Z,16.58
2022-07-27T22:43:36.580Z,16.42
2022-07-27T22:53:38.813Z,16.21
2022-07-27T23:03:41.134Z,16.06
2022-07-27T23:13:44.168Z,16.01
2022-07-27T23:23:52.221Z,15.85
2022-07-27T23:33:56.444Z,15.75
2022-07-27T23:43:58.705Z,15.59
2022-07-27T23:54:00.902Z,15.43
